Предлагаем Вашему вниманию английскую версию страницы: AUTOTAF.ME UUIP - aviation weather forecast Pavlovskoe

AUTOTAF UUIP - авиапрогноз Павловское

Сегодня рассвет 02:31 UTC, восход солнца 03:09 UTC,
местный полдень 09:09 UTC, заход солнца 15:10 UTC,
наступление темноты 15:47 UTC.

Краткий прогноз UUIP на 9 часов

AUTOTAF.ME UUIP 240200Z 2403/2412 18003MPS 1000 BR OVC003    
  FM240600 19003MPS 9999 SCT014 
  BECMG 2407/2409 20006MPS  
  FM241200 20005MPS 9999 VCSH BKN022CB

Детальный прогноз UUIP на 24 часа

AUTOTAF.ME UUIP 240200Z 2403/2503 18003MPS 1000 BR OVC003 TX21/2412Z TN10/2403Z  
  FM240600 19003MPS 9999 SCT014 
  BECMG 2407/2409 20006MPS  
  FM241200 20005MPS 9999 VCSH BKN022CB 
  BECMG 2413/2415 VRB02MPS  
  FM241800 17003MPS 9999 SCT030 
  FM242100 18003MPS 5000 BR SCT210

Подробный табличный прогноз

Время (UTC) miniAUTOTAF на 3 ч WX FZLVL
M AGL
ICE TURB Т
(°С)
Тd
(°С)
f(%) QNH
(гПа)
WIND/T
24.09.2020
00 18003MPS 3000 BR BKN005 BR 3300 11 9 91 1017 ...
03 18003MPS 1000 BR OVC003 BR 3300 10 9 94 1017 ...
06 19003MPS 9999 SCT014 3300 14 12 85 1018 ...
09 20006MPS 9999 BKN015 3300 MOD SFC/FL20 19 14 72 1018 ...
12 20005MPS 9999 VCSH BKN022CB VCSH 3300 MOD SFC/FL30 21 14 65 1018 ...
15 VRB02MPS 9999 VCSH BKN022CB VCSH 3300 MOD SFC/FL30 17 13 80 1018 ...
18 17003MPS 9999 SCT030 3300 MOD FL30/FL40 14 13 90 1019 ...
21 18003MPS 5000 BR SCT210 BR 3300 13 12 92 1020 ...
25.09.2020
00 VRB02MPS 5000 BR FEW210 BR 3300 12 11 92 1020 ...
03 VRB02MPS 5000 BR SCT210 BR 3300 11 10 93 1020 ...
06 16003MPS 9999 FEW210 3300 15 10 75 1020 ...
09 16005MPS 9999 BKN260 3300 MOD SFC/FL20 18 11 62 1020 ...
12 16006MPS 9999 FEW030 3300 MOD SFC/FL30 20 11 55 1020 ...
15 15003MPS 9999 SKC 3300 MOD SFC/FL30 16 11 74 1020 ...
18 15003MPS 9999 SKC 3300 13 10 84 1020 ...
21 15003MPS 9999 FEW330 3300 11 10 89 1021 ...


Широта 56.31073°, долгота 40.48182°, высота 144 м абс.
Средняя высота рельефа местности 122 м абс.
Прогнозы обновляются четыре раза в сутки: в 02, 08, 14, 20 ч всемирного времени.


Выбрать прогноз по другой модели Павловское
Онлайн-сводка гроз по Павловское (для РФ и ближнего зарубежья)
Карта фактических гроз в окрестностях Павловское
Динамические прогностические карты (ventusky.com)
Прогностическая карта высоты нижней границы облаков по Павловское (windy.com)
Выбрать другой город

Прогноз предназначен для личного научно-познавательного использования частными лицами
и не предназначен для принятия важных решений и выполнения реальных полётов воздушных судов

При копировании или ином использовании любых материалов данного сайта ссылка на © meteocenter.asia обязательна.

0.39/0.8